createdAt,value
2024-03-16T00:01:01.892Z,100636.84
2024-03-16T00:03:29.738Z,100652.16
2024-03-16T00:05:57.455Z,100648.41
2024-03-16T00:08:24.711Z,100651.69
2024-03-16T00:10:51.907Z,100652.50
2024-03-16T00:13:18.486Z,100652.09
2024-03-16T00:15:49.432Z,100651.81
2024-03-16T00:18:16.184Z,100638.78
2024-03-16T00:20:43.077Z,100648.09
2024-03-16T00:23:09.461Z,100655.16
2024-03-16T00:25:35.822Z,100658.97
2024-03-16T00:28:02.313Z,100663.56
2024-03-16T00:30:28.762Z,100655.09
2024-03-16T00:32:55.642Z,100655.94
2024-03-16T00:35:22.250Z,100662.75
2024-03-16T00:37:49.122Z,100663.06
2024-03-16T00:40:16.908Z,100662.19
2024-03-16T00:42:43.570Z,100661.06
2024-03-16T00:45:09.986Z,100666.53
2024-03-16T00:47:36.520Z,100663.25
2024-03-16T00:50:03.130Z,100672.19
2024-03-16T00:52:29.507Z,100668.06
2024-03-16T00:54:57.556Z,100670.84
2024-03-16T00:57:24.864Z,100667.06
2024-03-16T00:59:51.283Z,100667.81
2024-03-16T01:02:18.832Z,100673.00
2024-03-16T01:04:45.204Z,100665.91
2024-03-16T01:07:11.615Z,100669.22
2024-03-16T01:09:38.122Z,100669.22
2024-03-16T01:12:04.904Z,100667.56
2024-03-16T01:14:31.275Z,100674.69
2024-03-16T01:16:57.684Z,100677.16
2024-03-16T01:19:24.110Z,100677.38
2024-03-16T01:21:50.542Z,100679.75
2024-03-16T01:24:17.028Z,100686.00
2024-03-16T01:26:43.691Z,100678.44
2024-03-16T01:29:15.050Z,100681.59
2024-03-16T01:31:41.498Z,100673.19
2024-03-16T01:34:08.090Z,100672.31
2024-03-16T01:36:34.688Z,100684.38
2024-03-16T01:39:01.054Z,100678.94
2024-03-16T01:41:27.408Z,100674.25
2024-03-16T01:43:54.080Z,100670.72
2024-03-16T01:46:20.513Z,100670.16
2024-03-16T01:48:50.255Z,100672.63
2024-03-16T01:51:16.726Z,100675.09
2024-03-16T01:53:43.257Z,100668.25
2024-03-16T01:56:10.069Z,100676.16
2024-03-16T01:58:39.751Z,100684.28
2024-03-16T02:01:06.238Z,100681.03
2024-03-16T02:03:32.772Z,100680.97
2024-03-16T02:05:59.258Z,100678.19
2024-03-16T02:08:27.239Z,100679.22
2024-03-16T02:10:53.637Z,100679.66
2024-03-16T02:13:20.149Z,100676.94
2024-03-16T02:15:46.606Z,100682.38
2024-03-16T02:18:13.050Z,100683.50
2024-03-16T02:20:39.485Z,100684.63
2024-03-16T02:23:05.834Z,100684.88
2024-03-16T02:25:32.206Z,100692.97
2024-03-16T02:27:58.652Z,100694.28
2024-03-16T02:30:25.322Z,100693.28
2024-03-16T02:32:51.740Z,100691.69
2024-03-16T02:35:19.043Z,100700.63
2024-03-16T02:37:45.461Z,100694.88
2024-03-16T02:40:12.995Z,100694.28
2024-03-16T02:42:42.115Z,100697.53
2024-03-16T02:45:08.807Z,100694.53
2024-03-16T02:47:35.286Z,100698.34
2024-03-16T02:50:04.897Z,100692.91
2024-03-16T02:52:34.726Z,100693.97
2024-03-16T02:55:01.197Z,100703.00
2024-03-16T02:57:27.641Z,100710.13
2024-03-16T02:59:54.068Z,100710.16
2024-03-16T03:02:24.428Z,100716.69
2024-03-16T03:04:51.813Z,100716.44
2024-03-16T03:07:18.754Z,100716.13
2024-03-16T03:09:45.690Z,100714.97
2024-03-16T03:12:12.055Z,100718.50
2024-03-16T03:14:38.409Z,100724.94
2024-03-16T03:17:04.742Z,100721.09
2024-03-16T03:19:31.547Z,100721.91
2024-03-16T03:21:58.068Z,100729.81
2024-03-16T03:24:24.415Z,100728.00
2024-03-16T03:26:50.985Z,100736.72
2024-03-16T03:29:17.463Z,100729.13
2024-03-16T03:31:43.851Z,100734.31
2024-03-16T03:34:10.331Z,100731.09
2024-03-16T03:36:37.083Z,100729.75
2024-03-16T03:39:04.026Z,100733.03
2024-03-16T03:41:30.458Z,100742.63
2024-03-16T03:44:01.232Z,100738.00
2024-03-16T03:46:41.275Z,100738.31
2024-03-16T03:49:16.077Z,100733.44
2024-03-16T03:51:42.644Z,100734.59
2024-03-16T03:54:08.991Z,100739.25
2024-03-16T03:56:35.682Z,100743.06
2024-03-16T03:59:03.242Z,100739.00
2024-03-16T04:01:29.870Z,100746.41
2024-03-16T04:03:57.198Z,100750.78
2024-03-16T04:06:25.381Z,100748.81
2024-03-16T04:08:51.749Z,100743.44
2024-03-16T04:11:18.116Z,100740.97
2024-03-16T04:13:44.472Z,100758.97
2024-03-16T04:16:13.269Z,100760.88
2024-03-16T04:18:40.227Z,100752.72
2024-03-16T04:21:07.119Z,100755.19
2024-03-16T04:23:33.993Z,100755.69
2024-03-16T04:26:00.421Z,100753.06
2024-03-16T04:28:26.804Z,100748.94
2024-03-16T04:30:53.297Z,100747.69
2024-03-16T04:33:19.728Z,100748.25
2024-03-16T04:35:49.105Z,100754.50
2024-03-16T04:38:15.436Z,100756.34
2024-03-16T04:40:43.817Z,100758.28
2024-03-16T04:43:10.259Z,100762.09
2024-03-16T04:45:36.666Z,100763.72
2024-03-16T04:48:03.332Z,100763.44
2024-03-16T04:50:29.824Z,100770.50
2024-03-16T04:52:56.228Z,100765.06
2024-03-16T04:55:22.673Z,100777.59
2024-03-16T04:57:49.052Z,100779.22
2024-03-16T05:00:15.463Z,100775.47
2024-03-16T05:02:42.636Z,100785.81
2024-03-16T05:05:09.074Z,100780.94
2024-03-16T05:07:36.146Z,100779.88
2024-03-16T05:10:05.084Z,100781.00
2024-03-16T05:12:31.592Z,100786.44
2024-03-16T05:14:57.963Z,100784.88
2024-03-16T05:17:24.347Z,100781.66
2024-03-16T05:19:53.107Z,100790.06
2024-03-16T05:22:19.598Z,100790.31
2024-03-16T05:24:46.199Z,100788.94
2024-03-16T05:27:13.627Z,100791.31
2024-03-16T05:29:39.975Z,100788.28
2024-03-16T05:32:06.469Z,100796.94
2024-03-16T05:34:32.832Z,100797.13
2024-03-16T05:36:59.265Z,100799.84
2024-03-16T05:39:25.777Z,100808.59
2024-03-16T05:41:52.194Z,100820.56
2024-03-16T05:44:18.549Z,100817.84
2024-03-16T05:46:44.889Z,100822.44
2024-03-16T05:49:11.360Z,100823.19
2024-03-16T05:51:37.857Z,100824.25
2024-03-16T05:54:05.308Z,100829.69
2024-03-16T05:56:33.428Z,100833.50
2024-03-16T05:58:59.809Z,100835.41
2024-03-16T06:01:26.298Z,100842.78
2024-03-16T06:03:52.925Z,100855.91
2024-03-16T06:06:19.311Z,100854.81
2024-03-16T06:08:45.645Z,100857.03
2024-03-16T06:11:12.013Z,100859.81
2024-03-16T06:13:38.377Z,100869.06
2024-03-16T06:16:05.025Z,100872.34
2024-03-16T06:18:31.705Z,100878.84
2024-03-16T06:20:58.109Z,100877.81
2024-03-16T06:23:24.473Z,100886.84
2024-03-16T06:25:52.016Z,100882.72
2024-03-16T06:28:20.387Z,100897.16
2024-03-16T06:30:54.330Z,100894.19
2024-03-16T06:33:34.456Z,100900.72
2024-03-16T06:36:01.237Z,100907.72
2024-03-16T06:38:27.847Z,100909.31
2024-03-16T06:40:54.713Z,100907.16
2024-03-16T06:43:21.096Z,100917.50
2024-03-16T06:45:47.506Z,100924.94
2024-03-16T06:48:14.838Z,100931.78
2024-03-16T06:50:41.229Z,100948.00
2024-03-16T06:53:07.724Z,100967.22
2024-03-16T06:55:34.542Z,100982.63
2024-03-16T06:58:01.161Z,100995.38
2024-03-16T07:00:27.958Z,100990.81
2024-03-16T07:02:54.394Z,101008.56
2024-03-16T07:05:20.761Z,101018.06
2024-03-16T07:07:47.093Z,101024.34
2024-03-16T07:10:13.656Z,101024.81
2024-03-16T07:12:40.164Z,101033.69
2024-03-16T07:15:08.953Z,101038.44
2024-03-16T07:17:35.322Z,101035.94
2024-03-16T07:20:01.682Z,101040.31
2024-03-16T07:22:28.374Z,101034.91
2024-03-16T07:24:55.673Z,101048.59
2024-03-16T07:27:22.072Z,101059.31
2024-03-16T07:29:48.432Z,101066.72
2024-03-16T07:32:14.817Z,101070.63
2024-03-16T07:34:41.165Z,101082.56
2024-03-16T07:37:07.675Z,101107.00
2024-03-16T07:39:34.099Z,101114.56
2024-03-16T07:42:00.682Z,101119.63
2024-03-16T07:44:27.072Z,101125.78
2024-03-16T07:46:53.424Z,101130.03
2024-03-16T07:49:21.826Z,101137.34
2024-03-16T07:51:48.357Z,101137.13
2024-03-16T07:54:16.314Z,101130.38
2024-03-16T07:56:42.687Z,101135.13
2024-03-16T07:59:10.764Z,101136.38
2024-03-16T08:01:38.316Z,101144.19
2024-03-16T08:04:05.406Z,101143.69
2024-03-16T08:06:32.444Z,101162.13
2024-03-16T08:08:58.823Z,101160.50
2024-03-16T08:11:25.576Z,101179.50
2024-03-16T08:13:52.819Z,101184.00
2024-03-16T08:16:19.426Z,101182.81
2024-03-16T08:18:47.049Z,101189.88
2024-03-16T08:21:15.900Z,101202.75
2024-03-16T08:23:42.395Z,101192.59
2024-03-16T08:26:10.340Z,101199.56
2024-03-16T08:28:37.083Z,101215.06
2024-03-16T08:31:04.374Z,101211.97
2024-03-16T08:33:30.993Z,101224.25
2024-03-16T08:35:57.415Z,101218.81
2024-03-16T08:38:25.201Z,101221.06
2024-03-16T08:40:51.569Z,101238.66
2024-03-16T08:43:17.952Z,101231.56
2024-03-16T08:45:44.523Z,101247.16
2024-03-16T08:48:11.676Z,101243.41
2024-03-16T08:50:39.029Z,101252.00
2024-03-16T08:53:05.414Z,101265.72
2024-03-16T08:55:31.916Z,101259.94
2024-03-16T08:57:58.378Z,101267.72
2024-03-16T09:00:26.124Z,101278.13
2024-03-16T09:02:53.258Z,101275.88
2024-03-16T09:05:20.038Z,101281.53
2024-03-16T09:07:46.439Z,101293.84
2024-03-16T09:10:13.019Z,101293.00
2024-03-16T09:12:39.997Z,101297.16
2024-03-16T09:15:07.180Z,101299.38
2024-03-16T09:17:34.274Z,101308.72
2024-03-16T09:20:08.265Z,101314.84
2024-03-16T09:22:38.267Z,101319.84
2024-03-16T09:25:09.761Z,101320.31
2024-03-16T09:27:36.980Z,101325.38
2024-03-16T09:30:06.750Z,101322.22
2024-03-16T09:32:35.053Z,101333.31
2024-03-16T09:35:01.802Z,101328.00
2024-03-16T09:37:28.184Z,101339.56
2024-03-16T09:39:54.630Z,101343.00
2024-03-16T09:42:23.046Z,101338.63
